Time,TemperatureF,DewpointF,PressureIn,WindDirection,WindDirectionDegrees,WindSpeedMPH,WindSpeedGustMPH,Humidity,HourlyPrecipIn,Conditions,Clouds,dailyrainin,SoftwareType,DateUTC
2013-09-11 00:00:00,80.2,74.2,30.15,WSW,254,4.0,6.0,82,0.00,,,0.00,Wunderground v.1.15,2013-09-11 04:00:00,
2013-09-11 00:05:00,80.2,74.2,30.14,WSW,251,4.0,6.0,82,0.00,,,0.00,Wunderground v.1.15,2013-09-11 04:05:00,
2013-09-11 00:10:00,80.1,74.1,30.14,West,261,3.0,4.0,82,0.00,,,0.00,Wunderground v.1.15,2013-09-11 04:10:00,
2013-09-11 00:15:00,80.0,74.4,30.14,WSW,237,3.0,5.0,83,0.00,,,0.00,Wunderground v.1.15,2013-09-11 04:15:00,
2013-09-11 00:25:00,80.3,74.3,30.15,WSW,244,5.0,6.0,82,0.00,,,0.00,Wunderground v.1.15,2013-09-11 04:25:00,
2013-09-11 00:30:00,80.3,74.3,30.15,WSW,242,4.0,4.0,82,0.00,,,0.00,Wunderground v.1.15,2013-09-11 04:30:00,
2013-09-11 00:40:00,80.5,74.5,30.15,WSW,241,4.0,5.0,82,0.00,,,0.00,Wunderground v.1.15,2013-09-11 04:40:00,
2013-09-11 00:45:00,80.5,74.5,30.15,WSW,244,4.0,5.0,82,0.00,,,0.00,Wunderground v.1.15,2013-09-11 04:45:00,
2013-09-11 00:50:00,80.4,74.4,30.15,WSW,241,3.0,8.0,82,0.00,,,0.00,Wunderground v.1.15,2013-09-11 04:50:00,
2013-09-11 00:55:00,80.4,74.4,30.15,WSW,253,2.0,8.0,82,0.00,,,0.00,Wunderground v.1.15,2013-09-11 04:55:00,
2013-09-11 01:00:00,80.6,74.6,30.15,WSW,247,5.0,7.0,82,0.00,,,0.00,Wunderground v.1.15,2013-09-11 05:00:00,
2013-09-11 01:05:00,80.5,74.5,30.15,WSW,245,5.0,7.0,82,0.00,,,0.00,Wunderground v.1.15,2013-09-11 05:05:00,
2013-09-11 01:10:00,80.3,74.7,30.15,WSW,249,2.0,2.0,83,0.00,,,0.00,Wunderground v.1.15,2013-09-11 05:10:00,
2013-09-11 01:20:00,80.3,74.7,30.15,WSW,244,4.0,6.0,83,0.00,,,0.00,Wunderground v.1.15,2013-09-11 05:20:00,
2013-09-11 01:25:00,80.2,74.6,30.15,WSW,251,4.0,6.0,83,0.00,,,0.00,Wunderground v.1.15,2013-09-11 05:25:00,
2013-09-11 01:30:00,80.1,74.5,30.15,WSW,238,3.0,4.0,83,0.00,,,0.00,Wunderground v.1.15,2013-09-11 05:30:00,
2013-09-11 01:40:00,79.8,74.2,30.15,WSW,250,2.0,3.0,83,0.00,,,0.00,Wunderground v.1.15,2013-09-11 05:40:00,
2013-09-11 01:50:00,79.8,74.5,30.15,WSW,242,3.0,3.0,84,0.00,,,0.00,Wunderground v.1.15,2013-09-11 05:50:00,
2013-09-11 01:55:00,79.7,74.4,30.14,WSW,242,3.0,6.0,84,0.00,,,0.00,Wunderground v.1.15,2013-09-11 05:55:00,
2013-09-11 02:00:00,79.6,74.3,30.14,West,262,2.0,8.0,84,0.00,,,0.00,Wunderground v.1.15,2013-09-11 06:00:00,
2013-09-11 02:10:00,79.5,74.2,30.14,WSW,254,4.0,4.0,84,0.00,,,0.00,Wunderground v.1.15,2013-09-11 06:10:00,
2013-09-11 02:15:00,79.4,74.1,30.14,WSW,245,3.0,4.0,84,0.00,,,0.00,Wunderground v.1.15,2013-09-11 06:15:00,
2013-09-11 02:20:00,79.3,74.0,30.14,WSW,246,2.0,2.0,84,0.00,,,0.00,Wunderground v.1.15,2013-09-11 06:20:00,
2013-09-11 02:30:00,79.3,74.0,30.14,WSW,254,2.0,2.0,84,0.00,,,0.00,Wunderground v.1.15,2013-09-11 06:30:00,
2013-09-11 02:35:00,79.3,74.0,30.14,WSW,247,3.0,3.0,84,0.00,,,0.00,Wunderground v.1.15,2013-09-11 06:35:00,
2013-09-11 02:45:00,79.1,74.2,30.14,WSW,248,3.0,6.0,85,0.00,,,0.00,Wunderground v.1.15,2013-09-11 06:45:00,
2013-09-11 02:55:00,78.9,74.0,30.14,WSW,252,2.0,6.0,85,0.00,,,0.00,Wunderground v.1.15,2013-09-11 06:55:00,
2013-09-11 03:00:00,78.9,74.0,30.14,WSW,250,3.0,5.0,85,0.00,,,0.00,Wunderground v.1.15,2013-09-11 07:00:00,
2013-09-11 03:10:00,78.8,73.9,30.15,WSW,248,2.0,5.0,85,0.00,,,0.00,Wunderground v.1.15,2013-09-11 07:10:00,
2013-09-11 03:15:00,78.8,73.9,30.15,WSW,248,2.0,5.0,85,0.00,,,0.00,Wunderground v.1.15,2013-09-11 07:15:00,
2013-09-11 03:25:00,78.6,73.7,30.15,WSW,255,2.0,7.0,85,0.00,,,0.00,Wunderground v.1.15,2013-09-11 07:25:00,
2013-09-11 03:35:00,78.3,73.8,30.14,WSW,247,3.0,3.0,86,0.00,,,0.00,Wunderground v.1.15,2013-09-11 07:35:00,
2013-09-11 03:40:00,78.1,73.6,30.14,WSW,248,2.0,2.0,86,0.00,,,0.00,Wunderground v.1.15,2013-09-11 07:40:00,
2013-09-11 03:45:00,78.0,73.5,30.14,WSW,244,2.0,2.0,86,0.00,,,0.00,Wunderground v.1.15,2013-09-11 07:45:00,
2013-09-11 03:50:00,77.5,73.3,30.14,WSW,244,2.0,6.0,87,0.00,,,0.00,Wunderground v.1.15,2013-09-11 07:50:00,
2013-09-11 03:55:00,76.9,73.1,30.14,WSW,244,1.0,6.0,88,0.00,,,0.00,Wunderground v.1.15,2013-09-11 07:55:00,
2013-09-11 04:00:00,76.5,73.0,30.14,WSW,244,1.0,1.0,89,0.00,,,0.00,Wunderground v.1.15,2013-09-11 08:00:00,
2013-09-11 04:10:00,76.1,73.0,30.14,WSW,243,1.0,4.0,90,0.00,,,0.00,Wunderground v.1.15,2013-09-11 08:10:00,
2013-09-11 04:15:00,76.0,72.9,30.14,WSW,242,1.0,4.0,90,0.00,,,0.00,Wunderground v.1.15,2013-09-11 08:15:00,
2013-09-11 04:20:00,76.0,72.9,30.14,WSW,241,1.0,1.0,90,0.00,,,0.00,Wunderground v.1.15,2013-09-11 08:20:00,
2013-09-11 04:25:00,75.9,72.8,30.14,WSW,242,1.0,1.0,90,0.00,,,0.00,Wunderground v.1.15,2013-09-11 08:25:00,
2013-09-11 04:35:00,75.8,73.0,30.14,WSW,237,1.0,3.0,91,0.00,,,0.00,Wunderground v.1.15,2013-09-11 08:35:00,
2013-09-11 04:45:00,75.7,72.9,30.14,WSW,242,1.0,3.0,91,0.00,,,0.00,Wunderground v.1.15,2013-09-11 08:45:00,
2013-09-11 04:50:00,75.7,72.9,30.14,SW,236,2.0,2.0,91,0.00,,,0.00,Wunderground v.1.15,2013-09-11 08:50:00,
2013-09-11 04:55:00,75.7,72.9,30.14,WSW,238,2.0,2.0,91,0.00,,,0.00,Wunderground v.1.15,2013-09-11 08:55:00,
2013-09-11 05:00:00,75.8,73.0,30.15,WSW,240,2.0,2.0,91,0.00,,,0.00,Wunderground v.1.15,2013-09-11 09:00:00,
2013-09-11 05:15:00,76.2,73.1,30.15,WSW,241,2.0,6.0,90,0.00,,,0.00,Wunderground v.1.15,2013-09-11 09:15:00,
2013-09-11 05:24:00,76.0,72.9,30.15,WSW,241,2.0,3.0,90,0.00,,,0.00,Wunderground v.1.15,2013-09-11 09:24:00,
2013-09-11 05:30:00,75.6,72.5,30.15,WSW,242,2.0,2.0,90,0.00,,,0.00,Wunderground v.1.15,2013-09-11 09:30:00,
2013-09-11 05:35:00,75.3,72.5,30.15,WSW,241,2.0,2.0,91,0.00,,,0.00,Wunderground v.1.15,2013-09-11 09:35:00,
2013-09-11 05:45:00,74.9,72.4,30.15,WSW,240,1.0,4.0,92,0.00,,,0.00,Wunderground v.1.15,2013-09-11 09:45:00,
2013-09-11 05:50:00,74.7,72.2,30.15,SW,232,1.0,5.0,92,0.00,,,0.00,Wunderground v.1.15,2013-09-11 09:50:00,
2013-09-11 06:00:00,74.4,72.2,30.16,WSW,239,1.0,1.0,93,0.00,,,0.00,Wunderground v.1.15,2013-09-11 10:00:00,
2013-09-11 06:10:00,74.3,72.1,30.16,SW,227,2.0,2.0,93,0.00,,,0.00,Wunderground v.1.15,2013-09-11 10:10:00,
2013-09-11 06:20:00,74.2,72.4,30.16,SW,222,2.0,4.0,94,0.00,,,0.00,Wunderground v.1.15,2013-09-11 10:20:00,
2013-09-11 06:25:00,74.2,72.4,30.17,WSW,240,3.0,5.0,94,0.00,,,0.00,Wunderground v.1.15,2013-09-11 10:25:00,
2013-09-11 06:30:00,74.2,72.4,30.17,SW,228,3.0,3.0,94,0.00,,,0.00,Wunderground v.1.15,2013-09-11 10:30:00,
2013-09-11 06:39:00,74.1,72.3,30.17,WSW,239,2.0,4.0,94,0.00,,,0.00,Wunderground v.1.15,2013-09-11 10:39:00,
2013-09-11 06:45:00,74.0,72.2,30.17,WSW,242,2.0,4.0,94,0.00,,,0.00,Wunderground v.1.15,2013-09-11 10:45:00,
2013-09-11 06:55:00,73.9,72.1,30.18,WSW,242,1.0,2.0,94,0.00,,,0.00,Wunderground v.1.15,2013-09-11 10:55:00,
2013-09-11 07:00:00,73.9,72.4,30.18,SW,221,0.0,0.0,95,0.00,,,0.00,Wunderground v.1.15,2013-09-11 11:00:00,
2013-09-11 07:10:00,73.8,72.3,30.18,WSW,238,2.0,2.0,95,0.00,,,0.00,Wunderground v.1.15,2013-09-11 11:10:00,
2013-09-11 07:15:00,73.9,72.4,30.18,WSW,249,2.0,2.0,95,0.00,,,0.00,Wunderground v.1.15,2013-09-11 11:15:00,
2013-09-11 07:25:00,74.0,72.5,30.18,WSW,242,1.0,5.0,95,0.00,,,0.00,Wunderground v.1.15,2013-09-11 11:25:00,
2013-09-11 07:30:00,74.1,72.6,30.18,WSW,240,1.0,7.0,95,0.00,,,0.00,Wunderground v.1.15,2013-09-11 11:30:00,
2013-09-11 07:35:00,74.2,72.7,30.18,SW,217,2.0,7.0,95,0.00,,,0.00,Wunderground v.1.15,2013-09-11 11:35:00,
2013-09-11 07:45:00,74.4,72.9,30.18,SW,230,2.0,4.0,95,0.00,,,0.00,Wunderground v.1.15,2013-09-11 11:45:00,
2013-09-11 07:50:00,74.4,72.9,30.18,WSW,242,2.0,4.0,95,0.00,,,0.00,Wunderground v.1.15,2013-09-11 11:50:00,
2013-09-11 07:55:00,74.6,73.1,30.18,WSW,244,2.0,8.0,95,0.00,,,0.00,Wunderground v.1.15,2013-09-11 11:55:00,
2013-09-11 08:05:00,74.9,73.1,30.17,WSW,238,2.0,2.0,94,0.00,,,0.00,Wunderground v.1.15,2013-09-11 12:05:00,
2013-09-11 08:10:00,75.1,73.3,30.18,WSW,245,2.0,8.0,94,0.00,,,0.00,Wunderground v.1.15,2013-09-11 12:10:00,
2013-09-11 08:15:00,75.4,73.6,30.17,SW,218,1.0,8.0,94,0.00,,,0.00,Wunderground v.1.15,2013-09-11 12:15:00,
2013-09-11 08:25:00,75.9,73.7,30.17,SSW,208,1.0,7.0,93,0.00,,,0.00,Wunderground v.1.15,2013-09-11 12:25:00,
2013-09-11 08:35:00,76.4,74.2,30.17,SW,236,3.0,3.0,93,0.00,,,0.00,Wunderground v.1.15,2013-09-11 12:35:00,
2013-09-11 08:45:00,76.9,74.4,30.17,SW,236,2.0,4.0,92,0.00,,,0.00,Wunderground v.1.15,2013-09-11 12:45:00,
2013-09-11 08:55:00,77.6,74.8,30.17,WSW,244,1.0,7.0,91,0.00,,,0.00,Wunderground v.1.15,2013-09-11 12:55:00,
2013-09-11 09:00:00,78.0,74.8,30.17,WSW,241,2.0,6.0,90,0.00,,,0.00,Wunderground v.1.15,2013-09-11 13:00:00,
2013-09-11 09:10:00,78.9,75.4,30.17,WSW,244,2.0,3.0,89,0.00,,,0.00,Wunderground v.1.15,2013-09-11 13:10:00,
2013-09-11 09:19:00,79.4,75.2,30.17,SW,227,2.0,2.0,87,0.00,,,0.00,Wunderground v.1.15,2013-09-11 13:19:00,
2013-09-11 09:25:00,79.9,75.3,30.17,WSW,238,2.0,2.0,86,0.00,,,0.00,Wunderground v.1.15,2013-09-11 13:25:00,
2013-09-11 09:30:00,80.1,75.2,30.17,WSW,246,2.0,8.0,85,0.00,,,0.00,Wunderground v.1.15,2013-09-11 13:30:00,
2013-09-11 09:40:00,80.7,75.8,30.17,WSW,242,2.0,6.0,85,0.00,,,0.00,Wunderground v.1.15,2013-09-11 13:40:00,
2013-09-11 09:45:00,80.7,75.4,30.17,WSW,239,2.0,6.0,84,0.00,,,0.00,Wunderground v.1.15,2013-09-11 13:45:00,
2013-09-11 09:55:00,81.6,76.6,30.17,WSW,239,1.0,5.0,85,0.00,,,0.00,Wunderground v.1.15,2013-09-11 13:55:00,
2013-09-11 10:00:00,81.8,76.5,30.17,WSW,240,2.0,2.0,84,0.00,,,0.00,Wunderground v.1.15,2013-09-11 14:00:00,
2013-09-11 10:10:00,81.8,75.4,30.16,WSW,250,2.0,6.0,81,0.00,,,0.00,Wunderground v.1.15,2013-09-11 14:10:00,
2013-09-11 10:15:00,82.0,76.0,30.16,WSW,247,3.0,6.0,82,0.00,,,0.00,Wunderground v.1.15,2013-09-11 14:15:00,
2013-09-11 10:25:00,82.7,75.9,30.16,WNW,286,2.0,8.0,80,0.00,,,0.00,Wunderground v.1.15,2013-09-11 14:25:00,
2013-09-11 10:35:00,83.0,74.3,30.15,WSW,256,5.0,5.0,75,0.00,,,0.00,Wunderground v.1.15,2013-09-11 14:35:00,
2013-09-11 10:40:00,83.2,74.4,30.15,WSW,252,6.0,10.0,75,0.00,,,0.00,Wunderground v.1.15,2013-09-11 14:40:00,
2013-09-11 10:45:00,83.4,74.2,30.15,WSW,249,6.0,10.0,74,0.00,,,0.00,Wunderground v.1.15,2013-09-11 14:45:00,
2013-09-11 10:55:00,83.9,73.9,30.15,WSW,253,5.0,7.0,72,0.00,,,0.00,Wunderground v.1.15,2013-09-11 14:55:00,
2013-09-11 11:00:00,84.1,74.1,30.15,WSW,246,5.0,5.0,72,0.00,,,0.00,Wunderground v.1.15,2013-09-11 15:00:00,
2013-09-11 11:10:00,84.3,74.7,30.15,WSW,257,6.0,6.0,73,0.00,,,0.00,Wunderground v.1.15,2013-09-11 15:10:00,
2013-09-11 11:20:00,84.3,74.7,30.14,WSW,249,6.0,6.0,73,0.00,,,0.00,Wunderground v.1.15,2013-09-11 15:20:00,
2013-09-11 11:30:00,84.7,74.7,30.14,WSW,248,5.0,5.0,72,0.00,,,0.00,Wunderground v.1.15,2013-09-11 15:30:00,
2013-09-11 11:40:00,84.9,74.4,30.14,WSW,246,5.0,6.0,71,0.00,,,0.00,Wunderground v.1.15,2013-09-11 15:40:00,
2013-09-11 11:45:00,85.2,74.7,30.14,SW,234,4.0,8.0,71,0.00,,,0.00,Wunderground v.1.15,2013-09-11 15:45:00,
2013-09-11 11:50:00,85.2,75.1,30.14,WSW,244,3.0,3.0,72,0.00,,,0.00,Wunderground v.1.15,2013-09-11 15:50:00,
2013-09-11 12:00:00,85.8,74.9,30.13,WSW,252,4.0,5.0,70,0.00,,,0.00,Wunderground v.1.15,2013-09-11 16:00:00,
2013-09-11 12:05:00,86.0,75.5,30.13,WSW,251,4.0,5.0,71,0.00,,,0.00,Wunderground v.1.15,2013-09-11 16:05:00,
2013-09-11 12:10:00,86.3,74.9,30.13,SW,234,4.0,6.0,69,0.00,,,0.00,Wunderground v.1.15,2013-09-11 16:10:00,
2013-09-11 12:20:00,86.5,74.7,30.13,WSW,246,3.0,4.0,68,0.00,,,0.00,Wunderground v.1.15,2013-09-11 16:20:00,
2013-09-11 12:25:00,86.5,74.2,30.13,WSW,252,3.0,4.0,67,0.00,,,0.00,Wunderground v.1.15,2013-09-11 16:25:00,
2013-09-11 12:30:00,86.4,75.5,30.13,WSW,250,3.0,3.0,70,0.00,,,0.00,Wunderground v.1.15,2013-09-11 16:30:00,
2013-09-11 12:40:00,86.5,74.2,30.13,WSW,246,6.0,7.0,67,0.00,,,0.00,Wunderground v.1.15,2013-09-11 16:40:00,
2013-09-11 12:45:00,86.6,74.8,30.13,WSW,245,5.0,7.0,68,0.00,,,0.00,Wunderground v.1.15,2013-09-11 16:45:00,
2013-09-11 12:55:00,87.0,74.3,30.12,WSW,240,3.0,3.0,66,0.00,,,0.00,Wunderground v.1.15,2013-09-11 16:55:00,
2013-09-11 13:04:00,87.2,74.9,30.12,WNW,297,4.0,6.0,67,0.00,,,0.00,Wunderground v.1.15,2013-09-11 17:04:00,
2013-09-11 13:10:00,87.4,75.5,30.12,WNW,298,3.0,3.0,68,0.00,,,0.00,Wunderground v.1.15,2013-09-11 17:10:00,
2013-09-11 13:15:00,87.7,76.7,30.12,West,281,2.0,3.0,70,0.00,,,0.00,Wunderground v.1.15,2013-09-11 17:15:00,
2013-09-11 13:24:00,87.5,75.6,30.12,WSW,243,2.0,4.0,68,0.00,,,0.00,Wunderground v.1.15,2013-09-11 17:24:00,
2013-09-11 13:30:00,87.8,75.0,30.11,WSW,242,2.0,5.0,66,0.00,,,0.00,Wunderground v.1.15,2013-09-11 17:30:00,
2013-09-11 13:35:00,87.6,74.8,30.11,WSW,242,4.0,5.0,66,0.00,,,0.00,Wunderground v.1.15,2013-09-11 17:35:00,
2013-09-11 13:45:00,87.6,76.2,30.11,WSW,244,2.0,4.0,69,0.00,,,0.00,Wunderground v.1.15,2013-09-11 17:45:00,
2013-09-11 13:50:00,87.5,75.6,30.11,WSW,246,3.0,3.0,68,0.00,,,0.00,Wunderground v.1.15,2013-09-11 17:50:00,
2013-09-11 14:00:00,87.2,75.3,30.10,WSW,251,3.0,3.0,68,0.00,,,0.00,Wunderground v.1.15,2013-09-11 18:00:00,
2013-09-11 14:05:00,87.4,75.1,30.10,WSW,252,3.0,3.0,67,0.00,,,0.00,Wunderground v.1.15,2013-09-11 18:05:00,
2013-09-11 14:15:00,87.9,76.0,30.09,West,261,2.0,6.0,68,0.00,,,0.00,Wunderground v.1.15,2013-09-11 18:15:00,
2013-09-11 14:30:00,88.6,75.3,30.08,WSW,246,4.0,7.0,65,0.00,,,0.00,Wunderground v.1.15,2013-09-11 18:30:00,
2013-09-11 14:35:00,88.8,76.0,30.08,WSW,253,3.0,7.0,66,0.00,,,0.00,Wunderground v.1.15,2013-09-11 18:35:00,
2013-09-11 14:45:00,89.2,75.4,30.08,WSW,242,4.0,4.0,64,0.00,,,0.00,Wunderground v.1.15,2013-09-11 18:45:00,
2013-09-11 14:50:00,89.5,76.6,30.08,West,269,3.0,3.0,66,0.00,,,0.00,Wunderground v.1.15,2013-09-11 18:50:00,
2013-09-11 15:00:00,89.2,75.4,30.08,WSW,251,1.0,1.0,64,0.00,,,0.00,Wunderground v.1.15,2013-09-11 19:00:00,
2013-09-11 15:05:00,88.9,74.7,30.07,WSW,244,1.0,1.0,63,0.00,,,0.00,Wunderground v.1.15,2013-09-11 19:05:00,
2013-09-11 15:10:00,88.8,75.5,30.07,WNW,289,1.0,1.0,65,0.00,,,0.00,Wunderground v.1.15,2013-09-11 19:10:00,
2013-09-11 15:20:00,87.6,75.3,30.06,WNW,292,0.0,0.0,67,0.00,,,0.00,Wunderground v.1.15,2013-09-11 19:20:00,
2013-09-11 15:25:00,87.3,74.5,30.05,WSW,250,1.0,6.0,66,0.00,,,0.00,Wunderground v.1.15,2013-09-11 19:25:00,
2013-09-11 15:55:00,72.4,68.0,30.06,SSW,207,1.0,1.0,86,0.46,,,0.26,Wunderground v.1.15,2013-09-11 19:55:00,
2013-09-11 16:00:00,71.7,68.3,30.06,SW,234,1.0,1.0,89,0.27,,,0.30,Wunderground v.1.15,2013-09-11 20:00:00,
2013-09-11 16:15:00,73.3,69.9,30.07,WSW,245,2.0,7.0,89,0.04,,,0.31,Wunderground v.1.15,2013-09-11 20:15:00,
2013-09-11 16:25:00,74.2,69.7,30.05,WSW,243,4.0,4.0,86,0.09,,,0.32,Wunderground v.1.15,2013-09-11 20:25:00,
2013-09-11 16:30:00,73.9,70.5,30.05,WSW,240,3.0,3.0,89,0.05,,,0.32,Wunderground v.1.15,2013-09-11 20:30:00,
2013-09-11 16:35:00,73.9,71.1,30.06,WSW,240,0.0,3.0,91,0.04,,,0.33,Wunderground v.1.15,2013-09-11 20:35:00,
2013-09-11 16:45:00,74.7,72.2,30.05,SSW,206,0.0,0.0,92,0.04,,,0.33,Wunderground v.1.15,2013-09-11 20:45:00,
2013-09-11 16:50:00,75.2,73.0,30.05,SW,218,0.0,1.0,93,0.04,,,0.33,Wunderground v.1.15,2013-09-11 20:50:00,
2013-09-11 17:00:00,76.2,73.1,30.05,SSW,207,0.0,0.0,90,0.00,,,0.33,Wunderground v.1.15,2013-09-11 21:00:00,
2013-09-11 17:10:00,76.8,72.6,30.06,SW,233,3.0,3.0,87,0.00,,,0.33,Wunderground v.1.15,2013-09-11 21:10:00,
2013-09-11 19:30:00,72.6,69.5,30.09,SSW,206,3.0,3.0,90,0.00,,,0.75,Wunderground v.1.15,2013-09-11 23:30:00,
2013-09-11 19:40:00,72.3,69.2,30.09,South,182,3.0,10.0,90,0.00,,,0.75,Wunderground v.1.15,2013-09-11 23:40:00,
2013-09-11 19:50:00,72.2,69.1,30.09,WSW,242,5.0,5.0,90,0.00,,,0.75,Wunderground v.1.15,2013-09-11 23:50:00,
2013-09-11 19:55:00,72.2,69.1,30.09,West,259,5.0,11.0,90,0.00,,,0.75,Wunderground v.1.15,2013-09-11 23:55:00,
2013-09-11 20:00:00,72.3,68.9,30.09,WSW,241,5.0,6.0,89,0.00,,,0.75,Wunderground v.1.15,2013-09-12 00:00:00,
2013-09-11 20:10:00,72.1,68.7,30.10,WSW,242,4.0,4.0,89,0.00,,,0.75,Wunderground v.1.15,2013-09-12 00:10:00,
2013-09-11 20:15:00,72.4,68.6,30.09,WSW,244,5.0,5.0,88,0.00,,,0.75,Wunderground v.1.15,2013-09-12 00:15:00,
2013-09-11 20:25:00,72.5,68.7,30.11,WSW,247,4.0,7.0,88,0.00,,,0.75,Wunderground v.1.15,2013-09-12 00:25:00,
2013-09-11 20:35:00,72.3,68.5,30.11,SW,225,6.0,6.0,88,0.00,,,0.75,Wunderground v.1.15,2013-09-12 00:35:00,
2013-09-11 20:40:00,72.2,68.4,30.10,SW,236,7.0,7.0,88,0.00,,,0.75,Wunderground v.1.15,2013-09-12 00:40:00,
2013-09-11 20:45:00,72.1,68.3,30.10,WSW,252,8.0,8.0,88,0.00,,,0.75,Wunderground v.1.15,2013-09-12 00:45:00,
2013-09-11 20:50:00,72.2,68.4,30.10,WSW,240,8.0,8.0,88,0.00,,,0.75,Wunderground v.1.15,2013-09-12 00:50:00,
2013-09-11 21:00:00,72.3,68.5,30.10,WSW,242,10.0,10.0,88,0.00,,,0.76,Wunderground v.1.15,2013-09-12 01:00:00,
2013-09-11 21:10:00,71.3,68.2,30.09,WSW,242,10.0,10.0,90,0.07,,,0.77,Wunderground v.1.15,2013-09-12 01:10:00,
2013-09-11 21:15:00,71.1,68.3,30.09,SW,234,7.0,10.0,91,0.07,,,0.77,Wunderground v.1.15,2013-09-12 01:15:00,
2013-09-11 21:25:00,70.6,68.2,30.09,WSW,241,4.0,5.0,92,0.00,,,0.77,Wunderground v.1.15,2013-09-12 01:25:00,
2013-09-11 21:30:00,70.4,68.3,30.09,WSW,238,4.0,7.0,93,0.00,,,0.77,Wunderground v.1.15,2013-09-12 01:30:00,
2013-09-11 21:40:00,70.2,68.1,30.09,SSW,198,5.0,5.0,93,0.00,,,0.77,Wunderground v.1.15,2013-09-12 01:40:00,
2013-09-11 21:45:00,70.1,68.3,30.08,SSW,204,4.0,6.0,94,0.00,,,0.77,Wunderground v.1.15,2013-09-12 01:45:00,
2013-09-11 21:50:00,70.1,68.3,30.08,SSW,209,3.0,3.0,94,0.00,,,0.77,Wunderground v.1.15,2013-09-12 01:50:00,
2013-09-11 22:00:00,70.1,68.3,30.08,SW,233,4.0,4.0,94,0.00,,,0.77,Wunderground v.1.15,2013-09-12 02:00:00,
2013-09-11 22:05:00,70.0,68.2,30.08,SW,225,4.0,4.0,94,0.00,,,0.77,Wunderground v.1.15,2013-09-12 02:05:00,
2013-09-11 22:10:00,69.9,68.1,30.08,SW,225,4.0,4.0,94,0.00,,,0.77,Wunderground v.1.15,2013-09-12 02:10:00,
2013-09-11 22:20:00,70.0,68.2,30.08,SW,231,6.0,11.0,94,0.00,,,0.77,Wunderground v.1.15,2013-09-12 02:20:00,
2013-09-11 22:25:00,70.0,68.2,30.07,WSW,238,7.0,11.0,94,0.00,,,0.77,Wunderground v.1.15,2013-09-12 02:25:00,
2013-09-11 22:30:00,69.9,68.1,30.07,SSW,207,5.0,5.0,94,0.00,,,0.77,Wunderground v.1.15,2013-09-12 02:30:00,
2013-09-11 22:35:00,69.9,68.1,30.07,South,188,4.0,6.0,94,0.00,,,0.77,Wunderground v.1.15,2013-09-12 02:35:00,
2013-09-11 22:45:00,70.0,68.2,30.08,SSW,196,5.0,5.0,94,0.00,,,0.77,Wunderground v.1.15,2013-09-12 02:45:00,
2013-09-11 22:55:00,70.0,68.2,30.08,WSW,249,6.0,12.0,94,0.00,,,0.77,Wunderground v.1.15,2013-09-12 02:55:00,
2013-09-11 23:00:00,70.1,68.3,30.08,SW,227,6.0,12.0,94,0.00,,,0.77,Wunderground v.1.15,2013-09-12 03:00:00,
2013-09-11 23:10:00,69.9,68.1,30.08,SW,235,6.0,6.0,94,0.00,,,0.77,Wunderground v.1.15,2013-09-12 03:10:00,
2013-09-11 23:20:00,69.8,68.0,30.07,South,182,5.0,5.0,94,0.00,,,0.77,Wunderground v.1.15,2013-09-12 03:20:00,
2013-09-11 23:25:00,69.7,67.9,30.07,SW,219,4.0,5.0,94,0.00,,,0.77,Wunderground v.1.15,2013-09-12 03:25:00,
2013-09-11 23:30:00,69.7,67.9,30.06,SW,226,4.0,4.0,94,0.00,,,0.77,Wunderground v.1.15,2013-09-12 03:30:00,
2013-09-11 23:35:00,69.7,67.9,30.05,SW,221,4.0,4.0,94,0.00,,,0.77,Wunderground v.1.15,2013-09-12 03:35:00,
2013-09-11 23:40:00,69.7,67.9,30.05,WSW,252,4.0,4.0,94,0.00,,,0.77,Wunderground v.1.15,2013-09-12 03:40:00,
2013-09-11 23:50:00,69.7,67.9,30.05,WSW,252,6.0,15.0,94,0.00,,,0.77,Wunderground v.1.15,2013-09-12 03:50:00,
2013-09-11 23:55:00,69.6,67.8,30.04,SW,229,6.0,15.0,94,0.00,,,0.77,Wunderground v.1.15,2013-09-12 03:55:00,